createdAt,value
2023-02-28T00:02:11.758Z,-1.20
2023-02-28T00:07:00.159Z,-1.30
2023-02-28T00:11:49.633Z,-1.30
2023-02-28T00:16:36.809Z,-1.20
2023-02-28T00:21:23.238Z,-1.30
2023-02-28T00:26:12.150Z,-1.40
2023-02-28T00:31:01.149Z,-1.50
2023-02-28T00:35:47.926Z,-1.60
2023-02-28T00:40:36.263Z,-1.70
2023-02-28T00:45:24.826Z,-1.80
2023-02-28T00:50:15.131Z,-1.70
2023-02-28T00:55:00.002Z,-1.70
2023-02-28T00:59:49.259Z,-1.90
2023-02-28T01:04:35.948Z,-2.10
2023-02-28T01:09:25.411Z,-2.10
2023-02-28T01:14:14.433Z,-2.10
2023-02-28T01:19:01.054Z,-2.10
2023-02-28T01:23:52.187Z,-2.10
2023-02-28T01:28:37.043Z,-2.00
2023-02-28T01:33:27.554Z,-2.00
2023-02-28T01:38:22.145Z,-1.90
2023-02-28T01:43:31.344Z,-1.90
2023-02-28T01:48:22.020Z,-1.90
2023-02-28T01:53:13.020Z,-2.00
2023-02-28T01:58:00.800Z,-2.00
2023-02-28T02:02:46.684Z,-2.10
2023-02-28T02:07:35.512Z,-2.10
2023-02-28T02:12:36.924Z,-2.20
2023-02-28T02:17:39.137Z,-2.20
2023-02-28T02:23:03.408Z,-2.20
2023-02-28T02:28:18.494Z,-2.30
2023-02-28T02:33:27.640Z,-2.40
2023-02-28T02:38:27.467Z,-2.50
2023-02-28T02:43:22.172Z,-2.50
2023-02-28T02:48:08.781Z,-2.40
2023-02-28T02:52:56.928Z,-2.30
2023-02-28T02:57:55.656Z,-2.20
2023-02-28T03:02:51.217Z,-2.20
2023-02-28T03:07:34.677Z,-2.20
2023-02-28T03:12:22.511Z,-2.10
2023-02-28T03:17:39.560Z,-2.10
2023-02-28T03:22:50.636Z,-2.10
2023-02-28T03:27:48.950Z,-2.10
2023-02-28T03:32:43.066Z,-2.30
2023-02-28T03:37:30.207Z,-2.40
2023-02-28T03:42:17.233Z,-2.50
2023-02-28T03:47:16.565Z,-2.70
2023-02-28T03:52:09.123Z,-2.90
2023-02-28T03:56:59.507Z,-3.10
2023-02-28T04:01:46.172Z,-3.30
2023-02-28T04:06:32.700Z,-3.50
2023-02-28T04:11:23.716Z,-3.60
2023-02-28T04:16:33.954Z,-3.70
2023-02-28T04:21:28.011Z,-3.70
2023-02-28T04:26:13.501Z,-3.80
2023-02-28T04:31:03.376Z,-3.90
2023-02-28T04:35:49.870Z,-4.20
2023-02-28T04:40:38.160Z,-4.30
2023-02-28T04:45:24.697Z,-4.40
2023-02-28T04:50:18.994Z,-4.60
2023-02-28T04:55:02.811Z,-4.70
2023-02-28T04:59:48.626Z,-4.60
2023-02-28T05:04:41.314Z,-4.60
2023-02-28T05:09:26.216Z,-4.70
2023-02-28T05:14:15.599Z,-4.80
2023-02-28T05:19:02.120Z,-4.90
2023-02-28T05:23:48.993Z,-5.00
2023-02-28T05:28:37.423Z,-5.20
2023-02-28T05:33:25.242Z,-5.30
2023-02-28T05:38:18.683Z,-5.40
2023-02-28T05:43:02.344Z,-5.50
2023-02-28T05:47:50.444Z,-5.70
2023-02-28T05:52:37.244Z,-5.70
2023-02-28T05:57:29.938Z,-5.80
2023-02-28T06:02:15.931Z,-5.70
2023-02-28T06:07:02.805Z,-5.80
2023-02-28T06:11:48.411Z,-5.70
2023-02-28T06:16:41.357Z,-5.70
2023-02-28T06:21:28.057Z,-5.50
2023-02-28T06:26:13.679Z,-5.60
2023-02-28T06:31:00.285Z,-5.50
2023-02-28T06:35:53.701Z,-5.40
2023-02-28T06:40:37.854Z,-5.30
2023-02-28T06:45:27.277Z,-5.20
2023-02-28T06:50:14.085Z,-5.10
2023-02-28T06:55:02.208Z,-4.90
2023-02-28T06:59:51.843Z,-4.70
2023-02-28T07:04:41.590Z,-4.50
2023-02-28T07:09:25.482Z,-4.40
2023-02-28T07:14:12.152Z,-4.10
2023-02-28T07:19:04.729Z,-3.80
2023-02-28T07:23:49.709Z,-3.40
2023-02-28T07:28:37.100Z,-2.90
2023-02-28T07:33:24.927Z,-2.50
2023-02-28T07:38:15.670Z,-2.10
2023-02-28T07:43:03.783Z,-1.70
2023-02-28T07:47:50.351Z,-1.50
2023-02-28T07:52:38.187Z,-1.30
2023-02-28T07:57:25.217Z,-1.00
2023-02-28T08:02:18.497Z,-0.70
2023-02-28T08:07:01.989Z,-0.60
2023-02-28T08:11:51.160Z,-0.10
2023-02-28T08:22:15.910Z,0.90
2023-02-28T08:27:00.254Z,1.10
2023-02-28T08:31:50.532Z,1.40
2023-02-28T08:36:37.483Z,1.60
2023-02-28T08:41:25.799Z,1.30
2023-02-28T08:46:15.320Z,1.10
2023-02-28T08:51:07.641Z,1.20
2023-02-28T08:56:06.701Z,1.40
2023-02-28T09:00:54.774Z,1.60
2023-02-28T09:05:40.685Z,1.70
2023-02-28T09:10:29.044Z,1.90
2023-02-28T09:15:21.658Z,2.10
2023-02-28T09:20:07.526Z,2.30
2023-02-28T09:24:55.952Z,2.50
2023-02-28T09:29:41.325Z,2.60
2023-02-28T09:34:31.936Z,2.70
2023-02-28T09:39:19.919Z,2.80
2023-02-28T09:44:09.301Z,2.60
2023-02-28T09:49:07.663Z,2.50
2023-02-28T09:54:01.953Z,2.70
2023-02-28T09:59:00.110Z,2.90
2023-02-28T10:04:21.216Z,2.80
2023-02-28T10:09:15.062Z,3.10
2023-02-28T10:14:12.665Z,3.40
2023-02-28T10:19:06.627Z,3.40
2023-02-28T10:23:51.986Z,3.00
2023-02-28T10:28:38.418Z,2.70
2023-02-28T10:33:30.199Z,3.00
2023-02-28T10:38:27.486Z,2.90
2023-02-28T10:43:22.376Z,3.00
2023-02-28T10:48:08.768Z,3.00
2023-02-28T10:52:55.461Z,2.80
2023-02-28T10:57:40.830Z,2.60
2023-02-28T11:07:24.269Z,2.90
2023-02-28T11:12:43.353Z,2.60
2023-02-28T11:17:58.721Z,2.40
2023-02-28T11:22:48.931Z,2.60
2023-02-28T11:27:53.264Z,2.60
2023-02-28T11:32:38.789Z,2.50
2023-02-28T11:37:26.006Z,3.00
2023-02-28T11:42:43.674Z,3.60
2023-02-28T11:47:48.913Z,4.20
2023-02-28T11:58:29.598Z,4.40
2023-02-28T12:03:47.683Z,4.20
2023-02-28T12:08:55.116Z,4.30
2023-02-28T12:13:55.185Z,4.20
2023-02-28T12:19:13.344Z,4.30
2023-02-28T12:24:24.216Z,4.20
2023-02-28T12:29:29.771Z,4.20
2023-02-28T12:34:25.666Z,4.10
2023-02-28T12:39:19.348Z,4.40
2023-02-28T12:44:10.280Z,4.50
2023-02-28T12:48:58.757Z,4.70
2023-02-28T12:53:56.724Z,4.80
2023-02-28T12:58:45.598Z,4.90
2023-02-28T13:03:54.154Z,4.80
2023-02-28T13:09:13.549Z,4.60
2023-02-28T13:14:02.463Z,4.50
2023-02-28T13:18:48.004Z,4.50
2023-02-28T13:24:20.038Z,4.50
2023-02-28T13:29:30.245Z,4.10
2023-02-28T13:34:18.398Z,3.70
2023-02-28T13:39:05.053Z,3.70
2023-02-28T13:44:09.838Z,3.60
2023-02-28T13:48:55.721Z,3.50
2023-02-28T13:54:02.164Z,3.70
2023-02-28T13:59:01.857Z,3.60
2023-02-28T14:04:19.648Z,3.70
2023-02-28T14:09:29.518Z,3.70
2023-02-28T14:14:52.071Z,3.80
2023-02-28T14:19:51.360Z,3.70
2023-02-28T14:25:07.569Z,3.70
2023-02-28T14:30:33.143Z,3.60
2023-02-28T14:35:38.983Z,3.40
2023-02-28T14:40:40.310Z,3.40
2023-02-28T14:45:29.540Z,3.30
2023-02-28T14:50:29.854Z,3.00
2023-02-28T14:55:21.221Z,3.00
2023-02-28T15:00:22.409Z,2.70
2023-02-28T15:05:31.153Z,2.70
2023-02-28T15:10:32.232Z,2.50
2023-02-28T15:15:18.763Z,2.30
2023-02-28T15:20:06.600Z,2.10
2023-02-28T15:24:55.997Z,2.10
2023-02-28T15:29:56.750Z,2.00
2023-02-28T15:35:20.864Z,2.00
2023-02-28T15:40:25.653Z,1.80
2023-02-28T15:45:29.679Z,1.80
2023-02-28T15:50:16.470Z,1.60
2023-02-28T15:55:01.042Z,1.40
2023-02-28T15:59:54.426Z,1.20
2023-02-28T16:04:39.504Z,1.10
2023-02-28T16:09:28.128Z,0.90
2023-02-28T16:14:18.451Z,0.70
2023-02-28T16:19:03.350Z,0.50
2023-02-28T16:23:48.691Z,0.30
2023-02-28T16:28:41.575Z,0.10
2023-02-28T16:33:25.159Z,-0.10
2023-02-28T16:38:13.121Z,-0.20
2023-02-28T16:43:02.139Z,-0.30
2023-02-28T16:47:52.038Z,-0.60
2023-02-28T16:52:37.471Z,-0.80
2023-02-28T16:57:25.858Z,-1.10
2023-02-28T17:02:15.462Z,-1.50
2023-02-28T17:07:02.110Z,-1.70
2023-02-28T17:11:48.480Z,-1.90
2023-02-28T17:16:40.822Z,-2.10
2023-02-28T17:21:24.332Z,-2.20
2023-02-28T17:26:14.855Z,-2.30
2023-02-28T17:31:01.312Z,-2.50
2023-02-28T17:35:48.565Z,-2.60
2023-02-28T17:40:41.456Z,-2.60
2023-02-28T17:45:25.238Z,-2.70
2023-02-28T17:50:17.770Z,-2.70
2023-02-28T17:55:02.994Z,-2.70
2023-02-28T17:59:48.532Z,-2.80
2023-02-28T18:04:41.371Z,-2.80
2023-02-28T18:09:25.281Z,-3.00
2023-02-28T18:14:13.653Z,-3.10
2023-02-28T18:19:03.271Z,-3.20
2023-02-28T18:23:50.164Z,-3.30
2023-02-28T18:28:42.435Z,-3.40
2023-02-28T18:33:27.274Z,-3.40
2023-02-28T18:38:15.069Z,-3.50
2023-02-28T18:43:01.829Z,-3.50
2023-02-28T18:47:51.251Z,-3.50
2023-02-28T18:52:37.009Z,-3.60
2023-02-28T18:57:30.218Z,-3.60
2023-02-28T19:02:13.810Z,-3.60
2023-02-28T19:07:03.306Z,-3.70
2023-02-28T19:11:51.125Z,-3.80
2023-02-28T19:16:36.998Z,-3.80
2023-02-28T19:21:26.115Z,-3.80
2023-02-28T19:26:14.852Z,-3.90
2023-02-28T19:31:02.733Z,-4.00
2023-02-28T19:35:49.637Z,-4.10
2023-02-28T19:40:36.476Z,-4.10
2023-02-28T19:45:23.849Z,-4.10
2023-02-28T19:50:32.535Z,-4.00
2023-02-28T19:55:16.193Z,-3.90
2023-02-28T20:00:05.646Z,-4.00
2023-02-28T20:05:09.912Z,-4.10
2023-02-28T20:10:01.437Z,-4.10
2023-02-28T20:14:45.555Z,-4.20
2023-02-28T20:19:35.181Z,-4.20
2023-02-28T20:24:23.357Z,-4.30
2023-02-28T20:29:13.821Z,-4.40
2023-02-28T20:33:57.698Z,-4.30
2023-02-28T20:38:51.527Z,-4.20
2023-02-28T20:44:08.234Z,-4.00
2023-02-28T20:48:54.726Z,-3.90
2023-02-28T20:53:41.379Z,-4.00
2023-02-28T20:58:30.028Z,-3.90
2023-02-28T21:03:18.166Z,-3.90
2023-02-28T21:08:07.438Z,-3.80
2023-02-28T21:12:59.139Z,-4.00
2023-02-28T21:17:56.391Z,-4.20
2023-02-28T21:22:50.358Z,-4.30
2023-02-28T21:27:35.522Z,-4.40
2023-02-28T21:32:22.187Z,-4.50
2023-02-28T21:37:12.931Z,-4.60
2023-02-28T21:41:57.641Z,-4.60
2023-02-28T21:46:46.686Z,-4.80
2023-02-28T21:51:34.209Z,-4.70
2023-02-28T21:56:23.756Z,-4.60
2023-02-28T22:01:12.359Z,-4.50
2023-02-28T22:06:09.288Z,-4.40
2023-02-28T22:11:06.973Z,-4.40
2023-02-28T22:16:20.335Z,-4.20
2023-02-28T22:21:38.395Z,-4.20
2023-02-28T22:26:30.190Z,-4.20
2023-02-28T22:31:30.757Z,-4.20
2023-02-28T22:41:42.939Z,-4.30
2023-02-28T22:47:01.845Z,-4.20
2023-02-28T22:52:55.010Z,-4.30
2023-02-28T23:09:14.740Z,-4.60
2023-02-28T23:14:14.577Z,-4.70
2023-02-28T23:19:07.370Z,-4.80
2023-02-28T23:24:26.676Z,-4.70
2023-02-28T23:29:57.234Z,-4.70
2023-02-28T23:34:46.674Z,-4.70
2023-02-28T23:40:24.723Z,-4.80
2023-02-28T23:45:46.145Z,-4.80
2023-02-28T23:51:32.093Z,-4.80
2023-02-28T23:56:35.660Z,-5.00
